createdAt,value
2019-03-29T00:01:42.838Z,11.30
2019-03-29T00:04:14.581Z,10.80
2019-03-29T00:06:46.382Z,11.90
2019-03-29T00:09:19.391Z,12.55
2019-03-29T00:11:51.105Z,11.25
2019-03-29T00:14:23.564Z,11.45
2019-03-29T00:16:55.567Z,11.53
2019-03-29T00:19:27.903Z,11.22
2019-03-29T00:21:59.786Z,11.78
2019-03-29T00:24:31.607Z,12.00
2019-03-29T00:27:03.359Z,11.63
2019-03-29T00:29:35.096Z,11.23
2019-03-29T00:32:06.826Z,11.38
2019-03-29T00:34:38.632Z,11.73
2019-03-29T00:37:10.401Z,11.28
2019-03-29T00:39:42.145Z,11.68
2019-03-29T00:42:13.897Z,11.35
2019-03-29T00:44:45.690Z,10.60
2019-03-29T00:47:17.568Z,11.28
2019-03-29T00:49:49.299Z,11.57
2019-03-29T00:52:21.107Z,11.70
2019-03-29T00:54:52.828Z,12.30
2019-03-29T00:57:24.495Z,11.67
2019-03-29T00:59:56.304Z,11.10
2019-03-29T01:02:28.017Z,10.60
2019-03-29T01:04:59.828Z,11.40
2019-03-29T01:07:31.531Z,11.40
2019-03-29T01:10:04.480Z,11.73
2019-03-29T01:12:36.279Z,11.38
2019-03-29T01:15:09.556Z,11.20
2019-03-29T01:17:41.325Z,11.43
2019-03-29T01:20:13.164Z,11.30
2019-03-29T01:22:44.929Z,11.45
2019-03-29T01:25:16.753Z,10.72
2019-03-29T01:27:48.584Z,11.43
2019-03-29T01:30:20.566Z,11.53
2019-03-29T01:32:52.286Z,11.45
2019-03-29T01:35:24.092Z,11.60
2019-03-29T01:37:55.794Z,12.75
2019-03-29T01:40:27.505Z,12.33
2019-03-29T01:42:59.377Z,12.37
2019-03-29T01:45:31.078Z,11.78
2019-03-29T01:48:02.728Z,12.25
2019-03-29T01:50:35.129Z,12.03
2019-03-29T01:53:07.174Z,11.80
2019-03-29T01:55:38.888Z,12.00
2019-03-29T01:58:10.625Z,11.73
2019-03-29T02:00:42.405Z,11.80
2019-03-29T02:03:14.151Z,11.95
2019-03-29T02:05:45.928Z,12.65
2019-03-29T02:08:17.701Z,12.50
2019-03-29T02:10:49.842Z,13.13
2019-03-29T02:13:21.589Z,12.53
2019-03-29T02:15:53.334Z,11.33
2019-03-29T02:18:25.011Z,12.45
2019-03-29T02:20:57.049Z,12.88
2019-03-29T02:23:28.702Z,13.70
2019-03-29T02:26:00.403Z,13.10
2019-03-29T02:28:32.174Z,11.45
2019-03-29T02:31:03.935Z,12.75
2019-03-29T02:33:35.650Z,12.18
2019-03-29T02:36:07.367Z,12.70
2019-03-29T02:38:54.152Z,11.90
2019-03-29T02:41:12.633Z,15.00
2019-03-29T02:43:44.455Z,11.97
2019-03-29T02:46:16.212Z,11.95
2019-03-29T02:48:48.005Z,13.32
2019-03-29T02:51:19.796Z,12.40
2019-03-29T02:53:51.534Z,12.90
2019-03-29T02:56:23.336Z,12.82
2019-03-29T02:58:55.098Z,12.58
2019-03-29T03:01:26.829Z,12.15
2019-03-29T03:03:58.543Z,11.60
2019-03-29T03:06:30.270Z,11.50
2019-03-29T03:09:13.165Z,11.83
2019-03-29T03:11:35.593Z,12.10
2019-03-29T03:14:07.502Z,12.28
2019-03-29T03:16:39.247Z,12.30
2019-03-29T03:19:10.999Z,11.95
2019-03-29T03:21:42.945Z,12.13
2019-03-29T03:24:14.732Z,12.78
2019-03-29T03:26:46.467Z,12.47
2019-03-29T03:29:18.432Z,11.95
2019-03-29T03:31:50.289Z,12.90
2019-03-29T03:34:22.005Z,11.38
2019-03-29T03:36:53.760Z,11.15
2019-03-29T03:39:31.962Z,11.60
2019-03-29T03:41:59.092Z,12.25
2019-03-29T03:44:30.901Z,13.55
2019-03-29T03:47:02.647Z,11.68
2019-03-29T03:49:34.503Z,12.37
2019-03-29T03:52:06.248Z,12.13
2019-03-29T03:54:38.637Z,11.70
2019-03-29T03:57:11.727Z,12.88
2019-03-29T03:59:44.719Z,12.07
2019-03-29T04:02:16.566Z,12.60
2019-03-29T04:04:48.373Z,11.55
2019-03-29T04:07:20.100Z,11.53
2019-03-29T04:09:51.822Z,12.47
2019-03-29T04:12:23.482Z,11.63
2019-03-29T04:14:55.306Z,12.30
2019-03-29T04:17:27.174Z,11.63
2019-03-29T04:19:59.047Z,11.93
2019-03-29T04:22:30.712Z,11.97
2019-03-29T04:25:02.579Z,12.50
2019-03-29T04:27:34.352Z,11.50
2019-03-29T04:30:06.404Z,12.93
2019-03-29T04:32:38.172Z,12.33
2019-03-29T04:35:10.005Z,12.05
2019-03-29T04:37:41.687Z,12.30
2019-03-29T04:40:13.408Z,12.73
2019-03-29T04:42:45.262Z,13.15
2019-03-29T04:45:18.802Z,12.60
2019-03-29T04:47:50.600Z,12.95
2019-03-29T04:50:22.371Z,12.15
2019-03-29T04:52:54.163Z,13.53
2019-03-29T04:55:26.071Z,12.68
2019-03-29T04:57:57.767Z,12.60
2019-03-29T05:00:29.526Z,12.90
2019-03-29T05:03:01.298Z,13.88
2019-03-29T05:05:33.076Z,12.33
2019-03-29T05:08:04.815Z,12.88
2019-03-29T05:10:36.582Z,13.25
2019-03-29T05:13:08.335Z,13.45
2019-03-29T05:15:40.100Z,12.45
2019-03-29T05:18:11.806Z,12.37
2019-03-29T05:20:43.603Z,12.60
2019-03-29T05:23:15.378Z,13.05
2019-03-29T05:25:47.101Z,13.78
2019-03-29T05:28:18.816Z,13.75
2019-03-29T05:30:50.558Z,13.60
2019-03-29T05:33:22.361Z,13.55
2019-03-29T05:35:54.129Z,13.93
2019-03-29T05:38:25.854Z,13.48
2019-03-29T05:40:57.628Z,13.05
2019-03-29T05:43:29.475Z,12.73
2019-03-29T05:46:02.272Z,13.50
2019-03-29T05:48:34.045Z,13.53
2019-03-29T05:51:05.939Z,13.00
2019-03-29T05:53:37.806Z,14.05
2019-03-29T05:56:09.546Z,13.50
2019-03-29T05:58:41.394Z,13.15
2019-03-29T06:01:13.073Z,13.83
2019-03-29T06:03:44.793Z,12.50
2019-03-29T06:06:16.486Z,13.72
2019-03-29T06:08:48.261Z,14.05
2019-03-29T06:11:19.972Z,12.98
2019-03-29T06:13:51.650Z,14.07
2019-03-29T06:16:23.419Z,14.30
2019-03-29T06:18:55.142Z,13.25
2019-03-29T06:21:27.015Z,14.28
2019-03-29T06:23:58.763Z,13.00
2019-03-29T06:26:30.481Z,14.73
2019-03-29T06:29:02.245Z,13.60
2019-03-29T06:31:33.992Z,13.22
2019-03-29T06:34:05.724Z,14.23
2019-03-29T06:36:37.576Z,14.35
2019-03-29T06:39:09.366Z,13.90
2019-03-29T06:41:41.111Z,14.93
2019-03-29T06:44:12.856Z,14.10
2019-03-29T06:46:44.580Z,13.93
2019-03-29T06:49:16.299Z,14.53
2019-03-29T06:51:48.187Z,13.03
2019-03-29T06:54:20.009Z,14.73
2019-03-29T06:56:51.879Z,14.25
2019-03-29T06:59:23.571Z,14.03
2019-03-29T07:01:55.449Z,14.98
2019-03-29T07:04:27.218Z,14.63
2019-03-29T07:06:59.092Z,13.62
2019-03-29T07:09:30.835Z,14.15
2019-03-29T07:12:02.586Z,14.93
2019-03-29T07:14:34.337Z,14.93
2019-03-29T07:17:06.061Z,14.43
2019-03-29T07:19:38.093Z,13.68
2019-03-29T07:22:09.857Z,15.85
2019-03-29T07:24:41.668Z,13.90
2019-03-29T07:27:13.528Z,14.70
2019-03-29T07:29:45.220Z,15.23
2019-03-29T07:32:16.985Z,14.78
2019-03-29T07:34:49.342Z,15.32
2019-03-29T07:37:21.291Z,15.28
2019-03-29T07:39:53.963Z,15.68
2019-03-29T07:42:25.781Z,15.85
2019-03-29T07:44:57.521Z,16.65
2019-03-29T07:47:29.253Z,15.68
2019-03-29T07:50:01.116Z,16.50
2019-03-29T07:52:32.824Z,16.73
2019-03-29T07:55:04.652Z,15.60
2019-03-29T07:57:36.361Z,16.17
2019-03-29T08:00:09.169Z,15.95
2019-03-29T08:02:40.984Z,14.83
2019-03-29T08:05:12.691Z,16.25
2019-03-29T08:07:44.473Z,16.82
2019-03-29T08:10:24.894Z,16.93
2019-03-29T08:12:49.872Z,15.70
2019-03-29T08:15:21.636Z,15.88
2019-03-29T08:17:53.680Z,14.78
2019-03-29T08:20:39.284Z,14.75
2019-03-29T08:22:58.981Z,15.10
2019-03-29T08:25:30.838Z,14.18
2019-03-29T08:28:02.632Z,15.75
2019-03-29T08:30:34.394Z,15.78
2019-03-29T08:33:06.131Z,15.83
2019-03-29T08:35:37.836Z,17.92
2019-03-29T08:38:09.630Z,16.00
2019-03-29T08:40:41.340Z,15.93
2019-03-29T08:43:13.103Z,16.23
2019-03-29T08:45:44.945Z,14.63
2019-03-29T08:48:16.707Z,15.03
2019-03-29T08:50:48.456Z,15.93
2019-03-29T08:53:20.271Z,15.18
2019-03-29T08:55:52.035Z,14.47
2019-03-29T08:58:23.789Z,15.32
2019-03-29T09:00:55.548Z,15.28
2019-03-29T09:03:27.244Z,16.02
2019-03-29T09:05:59.103Z,16.75
2019-03-29T09:08:30.798Z,15.83
2019-03-29T09:11:02.621Z,15.83
2019-03-29T09:13:34.312Z,16.10
2019-03-29T09:16:06.121Z,15.38
2019-03-29T09:18:37.859Z,14.93
2019-03-29T09:21:09.655Z,14.35
2019-03-29T09:23:41.430Z,15.00
2019-03-29T09:26:13.255Z,14.83
2019-03-29T09:28:45.047Z,14.30
2019-03-29T09:31:16.806Z,15.00
2019-03-29T09:33:49.610Z,15.88
2019-03-29T09:36:21.473Z,16.40
2019-03-29T09:38:53.255Z,16.02
2019-03-29T09:41:25.019Z,16.20
2019-03-29T09:43:56.726Z,17.65
2019-03-29T09:46:28.542Z,16.02
2019-03-29T09:49:00.256Z,16.42
2019-03-29T09:51:32.073Z,15.58
2019-03-29T09:54:03.803Z,14.73
2019-03-29T09:56:38.986Z,16.07
2019-03-29T09:59:09.062Z,15.25
2019-03-29T10:01:40.802Z,15.65
2019-03-29T10:04:12.717Z,15.35
2019-03-29T10:06:44.451Z,16.75
2019-03-29T10:09:16.210Z,15.45
2019-03-29T10:11:47.962Z,16.27
2019-03-29T10:14:19.743Z,13.93
2019-03-29T10:16:51.491Z,15.32
2019-03-29T10:19:23.358Z,16.85
2019-03-29T10:21:55.146Z,15.00
2019-03-29T10:24:26.991Z,15.13
2019-03-29T10:26:58.703Z,16.42
2019-03-29T10:29:30.434Z,16.40
2019-03-29T10:32:05.487Z,17.80
2019-03-29T10:34:37.492Z,15.83
2019-03-29T10:37:09.104Z,15.53
2019-03-29T10:39:40.902Z,15.48
2019-03-29T10:42:12.667Z,15.43
2019-03-29T10:44:44.400Z,15.55
2019-03-29T10:47:16.211Z,15.88
2019-03-29T10:49:47.961Z,15.60
2019-03-29T10:52:19.703Z,17.15
2019-03-29T10:54:51.534Z,13.85
2019-03-29T10:57:23.324Z,11.85
2019-03-29T10:59:55.118Z,11.65
2019-03-29T11:02:26.868Z,11.88
2019-03-29T11:04:58.719Z,9.50
2019-03-29T11:07:30.437Z,10.32
2019-03-29T11:10:02.415Z,10.65
2019-03-29T11:12:34.148Z,11.68
2019-03-29T11:15:06.727Z,12.13
2019-03-29T11:17:38.727Z,12.25
2019-03-29T11:20:10.485Z,12.75
2019-03-29T11:22:42.214Z,13.10
2019-03-29T11:25:13.912Z,11.83
2019-03-29T11:27:45.659Z,11.30
2019-03-29T11:30:17.576Z,11.85
2019-03-29T11:32:49.418Z,10.75
2019-03-29T11:35:21.172Z,9.13
2019-03-29T11:37:52.925Z,11.33
2019-03-29T11:40:24.707Z,9.65
2019-03-29T11:42:56.545Z,10.15
2019-03-29T11:45:28.425Z,9.53
2019-03-29T11:48:08.544Z,9.50
2019-03-29T11:50:33.607Z,9.28
2019-03-29T11:53:05.351Z,9.73
2019-03-29T11:55:37.080Z,9.50
2019-03-29T11:58:08.832Z,10.98
2019-03-29T12:00:41.405Z,10.80
2019-03-29T12:03:13.330Z,10.63
2019-03-29T12:05:45.040Z,8.78
2019-03-29T12:08:16.860Z,9.93
2019-03-29T12:10:48.545Z,9.68
2019-03-29T12:13:20.358Z,8.15
2019-03-29T12:15:52.207Z,8.63
2019-03-29T12:18:24.020Z,8.18
2019-03-29T12:20:55.771Z,8.15
2019-03-29T12:23:27.644Z,8.28
2019-03-29T12:25:59.458Z,7.87
2019-03-29T12:28:31.163Z,8.93
2019-03-29T12:31:02.912Z,7.95
2019-03-29T12:33:34.705Z,8.30
2019-03-29T12:36:06.471Z,8.70
2019-03-29T12:38:38.209Z,8.13
2019-03-29T12:41:09.940Z,7.37
2019-03-29T12:43:54.655Z,7.33
2019-03-29T12:46:15.030Z,7.67
2019-03-29T12:48:50.074Z,6.95
2019-03-29T12:51:20.155Z,6.12
2019-03-29T12:53:51.895Z,6.95
2019-03-29T12:56:23.687Z,7.80
2019-03-29T12:58:55.489Z,7.47
2019-03-29T13:01:38.520Z,6.67
2019-03-29T13:04:00.740Z,6.42
2019-03-29T13:06:32.447Z,6.28
2019-03-29T13:09:04.511Z,6.53
2019-03-29T13:11:36.230Z,6.95
2019-03-29T13:14:10.642Z,6.62
2019-03-29T13:16:42.488Z,5.97
2019-03-29T13:19:14.399Z,6.55
2019-03-29T13:21:46.351Z,6.42
2019-03-29T13:24:18.138Z,5.87
2019-03-29T13:26:49.978Z,5.42
2019-03-29T13:29:21.754Z,5.67
2019-03-29T13:31:53.579Z,5.62
2019-03-29T13:34:25.310Z,5.45
2019-03-29T13:36:57.004Z,5.50
2019-03-29T13:39:28.872Z,6.00
2019-03-29T13:42:00.826Z,5.00
2019-03-29T13:44:32.593Z,5.30
2019-03-29T13:47:04.299Z,4.78
2019-03-29T13:49:36.084Z,4.95
2019-03-29T13:52:07.862Z,4.80
2019-03-29T13:54:39.583Z,5.22
2019-03-29T13:57:11.379Z,4.95
2019-03-29T13:59:43.102Z,4.78
2019-03-29T14:02:14.941Z,5.00
2019-03-29T14:04:46.730Z,5.83
2019-03-29T14:07:18.521Z,5.33
2019-03-29T14:09:50.302Z,5.40
2019-03-29T14:12:22.070Z,5.80
2019-03-29T14:14:53.763Z,6.03
2019-03-29T14:17:25.650Z,6.25
2019-03-29T14:19:57.391Z,6.33
2019-03-29T14:22:29.181Z,6.25
2019-03-29T14:25:00.996Z,6.70
2019-03-29T14:27:32.954Z,6.12
2019-03-29T14:30:05.319Z,6.28
2019-03-29T14:32:37.306Z,6.92
2019-03-29T14:35:09.345Z,6.53
2019-03-29T14:37:41.165Z,7.95
2019-03-29T14:40:12.946Z,7.83
2019-03-29T14:42:44.801Z,6.87
2019-03-29T14:45:16.726Z,7.05
2019-03-29T14:47:48.578Z,7.37
2019-03-29T14:50:20.392Z,7.65
2019-03-29T14:52:52.097Z,7.87
2019-03-29T14:55:23.837Z,7.80
2019-03-29T14:57:55.656Z,7.28
2019-03-29T15:00:55.758Z,7.37
2019-03-29T15:03:27.625Z,7.45
2019-03-29T15:06:01.714Z,7.08
2019-03-29T15:08:32.917Z,8.03
2019-03-29T15:11:04.744Z,8.05
2019-03-29T15:13:36.621Z,7.12
2019-03-29T15:16:08.500Z,8.28
2019-03-29T15:18:40.274Z,8.23
2019-03-29T15:21:12.055Z,8.63
2019-03-29T15:23:43.817Z,9.30
2019-03-29T15:26:15.559Z,10.65
2019-03-29T15:28:47.215Z,9.88
2019-03-29T15:31:19.108Z,11.88
2019-03-29T15:33:50.995Z,11.57
2019-03-29T15:36:22.812Z,10.80
2019-03-29T15:38:55.647Z,11.22
2019-03-29T15:41:27.512Z,11.95
2019-03-29T15:43:59.428Z,12.13
2019-03-29T15:46:31.183Z,12.10
2019-03-29T15:49:02.926Z,12.23
2019-03-29T15:51:34.818Z,11.70
2019-03-29T15:54:06.698Z,11.70
2019-03-29T15:56:38.547Z,11.70
2019-03-29T15:59:10.394Z,12.68
2019-03-29T16:01:42.273Z,13.03
2019-03-29T16:04:14.178Z,12.85
2019-03-29T16:06:45.962Z,15.60
2019-03-29T16:09:17.661Z,16.77
2019-03-29T16:11:49.607Z,18.62
2019-03-29T16:14:21.307Z,19.52
2019-03-29T16:16:53.236Z,19.15
2019-03-29T16:19:25.128Z,18.20
2019-03-29T16:21:57.000Z,18.65
2019-03-29T16:24:29.411Z,21.50
2019-03-29T16:27:02.248Z,20.32
2019-03-29T16:29:34.143Z,20.77
2019-03-29T16:32:06.738Z,20.40
2019-03-29T16:34:38.511Z,20.48
2019-03-29T16:37:10.328Z,20.23
2019-03-29T16:39:42.045Z,20.17
2019-03-29T16:42:13.865Z,20.23
2019-03-29T16:44:45.604Z,20.23
2019-03-29T16:47:17.356Z,20.48
2019-03-29T16:49:49.083Z,21.42
2019-03-29T16:52:20.917Z,20.80
2019-03-29T16:54:52.730Z,19.77
2019-03-29T16:57:24.673Z,21.68
2019-03-29T16:59:56.508Z,20.82
2019-03-29T17:02:28.306Z,20.60
2019-03-29T17:05:00.351Z,20.82
2019-03-29T17:07:32.168Z,20.08
2019-03-29T17:10:04.062Z,20.60
2019-03-29T17:12:36.086Z,20.65
2019-03-29T17:15:08.144Z,22.27
2019-03-29T17:17:39.928Z,21.60
2019-03-29T17:20:11.732Z,20.97
2019-03-29T17:22:43.780Z,19.55
2019-03-29T17:25:16.614Z,21.23
2019-03-29T17:27:51.913Z,20.72
2019-03-29T17:30:36.964Z,22.00
2019-03-29T17:33:08.728Z,21.12
2019-03-29T17:35:40.688Z,20.43
2019-03-29T17:38:12.394Z,21.93
2019-03-29T17:40:44.178Z,21.07
2019-03-29T17:43:16.199Z,21.62
2019-03-29T17:45:48.003Z,20.62
2019-03-29T17:48:19.946Z,20.57
2019-03-29T17:50:51.757Z,21.10
2019-03-29T17:53:23.557Z,21.97
2019-03-29T17:55:55.326Z,20.77
2019-03-29T17:58:27.134Z,21.97
2019-03-29T18:00:58.962Z,22.50
2019-03-29T18:03:30.673Z,23.15
2019-03-29T18:06:02.435Z,22.17
2019-03-29T18:08:34.245Z,22.15
2019-03-29T18:11:06.074Z,24.45
2019-03-29T18:13:37.785Z,21.27
2019-03-29T18:16:09.618Z,23.62
2019-03-29T18:18:41.365Z,23.25
2019-03-29T18:21:13.211Z,22.85
2019-03-29T18:23:45.082Z,23.12
2019-03-29T18:26:16.794Z,33.30
2019-03-29T18:28:48.568Z,51.85
2019-03-29T18:31:20.313Z,30.88
2019-03-29T18:33:52.074Z,23.38
2019-03-29T18:36:23.816Z,22.65
2019-03-29T18:38:55.585Z,23.60
2019-03-29T18:41:27.357Z,23.80
2019-03-29T18:43:59.142Z,22.90
2019-03-29T18:46:43.990Z,23.02
2019-03-29T18:49:04.483Z,23.92
2019-03-29T18:51:36.286Z,23.05
2019-03-29T18:54:08.184Z,23.62
2019-03-29T18:56:40.017Z,23.98
2019-03-29T18:59:11.873Z,23.90
2019-03-29T19:01:43.712Z,23.20
2019-03-29T19:04:15.665Z,23.87
2019-03-29T19:06:47.525Z,24.32
2019-03-29T19:09:19.294Z,23.95
2019-03-29T19:11:51.043Z,24.23
2019-03-29T19:14:23.719Z,23.83
2019-03-29T19:16:59.443Z,24.92
2019-03-29T19:19:29.006Z,24.37
2019-03-29T19:22:01.794Z,23.25
2019-03-29T19:24:33.577Z,24.50
2019-03-29T19:27:05.286Z,24.18
2019-03-29T19:29:37.120Z,24.72
2019-03-29T19:32:08.963Z,25.02
2019-03-29T19:34:40.672Z,29.25
2019-03-29T19:37:12.434Z,26.70
2019-03-29T19:39:44.206Z,27.30
2019-03-29T19:42:16.922Z,24.90
2019-03-29T19:44:48.797Z,26.15
2019-03-29T19:47:20.555Z,37.33
2019-03-29T19:49:55.343Z,28.25
2019-03-29T19:52:26.918Z,27.60
2019-03-29T19:55:01.429Z,27.22
2019-03-29T19:57:33.309Z,26.33
2019-03-29T20:00:06.529Z,26.12
2019-03-29T20:02:40.702Z,27.00
2019-03-29T20:05:35.120Z,26.57
2019-03-29T20:08:06.954Z,25.77
2019-03-29T20:10:38.720Z,28.55
2019-03-29T20:13:10.792Z,27.82
2019-03-29T20:15:43.092Z,26.25
2019-03-29T20:18:15.300Z,26.50
2019-03-29T20:20:47.237Z,24.87
2019-03-29T20:23:19.091Z,26.48
2019-03-29T20:25:51.087Z,25.15
2019-03-29T20:28:22.937Z,26.27
2019-03-29T20:30:54.826Z,26.15
2019-03-29T20:33:27.026Z,26.50
2019-03-29T20:35:59.054Z,25.80
2019-03-29T20:38:31.150Z,27.82
2019-03-29T20:41:03.228Z,27.42
2019-03-29T20:43:35.117Z,28.90
2019-03-29T20:46:07.124Z,26.97
2019-03-29T20:48:39.081Z,25.48
2019-03-29T20:51:11.139Z,26.80
2019-03-29T20:53:43.905Z,28.27
2019-03-29T20:56:17.509Z,26.95
2019-03-29T20:58:52.067Z,25.43
2019-03-29T21:01:24.112Z,24.77
2019-03-29T21:03:56.926Z,24.72
2019-03-29T21:06:30.314Z,38.33
2019-03-29T21:09:07.555Z,46.65
2019-03-29T21:11:39.546Z,34.85
2019-03-29T21:14:12.352Z,27.45
2019-03-29T21:16:45.459Z,27.58
2019-03-29T21:19:17.244Z,26.70
2019-03-29T21:21:49.058Z,29.55
2019-03-29T21:24:22.246Z,28.30
2019-03-29T21:26:54.362Z,29.02
2019-03-29T21:29:26.542Z,27.60
2019-03-29T21:31:58.717Z,27.25
2019-03-29T21:34:30.724Z,26.57
2019-03-29T21:37:02.712Z,27.10
2019-03-29T21:39:34.843Z,27.05
2019-03-29T21:42:06.899Z,27.77
2019-03-29T21:44:38.987Z,26.50
2019-03-29T21:47:11.002Z,28.12
2019-03-29T21:49:43.402Z,27.17
2019-03-29T21:52:15.793Z,28.77
2019-03-29T21:54:48.007Z,26.52
2019-03-29T21:57:20.316Z,26.82
2019-03-29T21:59:52.460Z,27.13
2019-03-29T22:02:24.676Z,29.50
2019-03-29T22:04:56.768Z,40.98
2019-03-29T22:07:28.789Z,45.07
2019-03-29T22:10:01.286Z,39.93
2019-03-29T22:12:33.439Z,29.90
2019-03-29T22:15:06.231Z,27.40
2019-03-29T22:17:38.375Z,28.30
2019-03-29T22:20:10.934Z,28.02
2019-03-29T22:22:43.450Z,27.27
2019-03-29T22:25:15.451Z,27.37
2019-03-29T22:27:47.526Z,26.85
2019-03-29T22:30:21.599Z,27.05
2019-03-29T22:32:53.799Z,26.55
2019-03-29T22:35:25.890Z,27.63
2019-03-29T22:37:57.653Z,27.27
2019-03-29T22:40:29.423Z,28.62
2019-03-29T22:43:01.275Z,28.60
2019-03-29T22:45:33.362Z,28.27
2019-03-29T22:48:05.172Z,26.70
2019-03-29T22:50:37.079Z,28.17
2019-03-29T22:53:08.800Z,28.70
2019-03-29T22:55:40.601Z,28.83
2019-03-29T22:58:12.392Z,29.12
2019-03-29T23:00:46.765Z,29.45
2019-03-29T23:03:19.144Z,28.03
2019-03-29T23:05:52.025Z,28.23
2019-03-29T23:08:23.816Z,29.82
2019-03-29T23:10:55.684Z,28.70
2019-03-29T23:13:29.026Z,29.03
2019-03-29T23:16:00.775Z,28.77
2019-03-29T23:18:36.119Z,28.43
2019-03-29T23:21:07.865Z,30.03
2019-03-29T23:23:39.613Z,29.75
2019-03-29T23:26:11.437Z,30.07
2019-03-29T23:28:43.100Z,28.83
2019-03-29T23:31:15.057Z,28.05
2019-03-29T23:33:47.825Z,28.17
2019-03-29T23:36:19.611Z,28.53
2019-03-29T23:38:51.319Z,29.47
2019-03-29T23:41:23.071Z,27.52
2019-03-29T23:43:54.807Z,27.77
2019-03-29T23:46:26.552Z,27.40
2019-03-29T23:48:58.312Z,27.17
2019-03-29T23:51:31.195Z,28.00
2019-03-29T23:54:04.097Z,26.75
2019-03-29T23:56:35.851Z,26.33
2019-03-29T23:59:08.549Z,28.32
